createdAt,value
2022-11-29T00:00:28.780Z,101276.19
2022-11-29T00:03:31.975Z,101291.41
2022-11-29T00:06:35.345Z,101270.84
2022-11-29T00:09:37.870Z,101283.25
2022-11-29T00:12:40.443Z,101282.72
2022-11-29T00:15:43.199Z,101276.47
2022-11-29T00:18:45.722Z,101292.50
2022-11-29T00:21:48.171Z,101263.28
2022-11-29T00:24:51.099Z,101283.31
2022-11-29T00:27:53.551Z,101294.00
2022-11-29T00:30:56.219Z,101276.09
2022-11-29T00:34:00.799Z,101278.44
2022-11-29T00:37:03.475Z,101265.72
2022-11-29T00:40:08.184Z,101267.84
2022-11-29T00:43:10.574Z,101270.88
2022-11-29T00:46:13.147Z,101273.75
2022-11-29T00:49:15.744Z,101273.19
2022-11-29T00:52:18.145Z,101270.56
2022-11-29T00:55:20.572Z,101290.31
2022-11-29T00:58:23.256Z,101271.13
2022-11-29T01:01:25.842Z,101285.03
2022-11-29T01:04:28.487Z,101266.88
2022-11-29T01:07:30.946Z,101281.38
2022-11-29T01:10:33.730Z,101253.81
2022-11-29T01:13:36.316Z,101256.09
2022-11-29T01:16:38.682Z,101265.47
2022-11-29T01:19:43.145Z,101256.03
2022-11-29T01:22:48.870Z,101271.53
2022-11-29T01:26:03.827Z,101271.25
2022-11-29T01:29:06.396Z,101242.88
2022-11-29T01:32:08.844Z,101264.84
2022-11-29T01:35:11.315Z,101266.63
2022-11-29T01:38:13.765Z,101265.81
2022-11-29T01:41:24.429Z,101251.91
2022-11-29T01:44:26.755Z,101258.88
2022-11-29T01:47:29.575Z,101260.41
2022-11-29T01:50:32.316Z,101257.28
2022-11-29T01:53:34.752Z,101261.09
2022-11-29T01:56:38.218Z,101244.88
2022-11-29T01:59:47.164Z,101247.97
2022-11-29T02:02:56.819Z,101249.78
2022-11-29T02:05:59.306Z,101236.50
2022-11-29T02:09:02.127Z,101244.16
2022-11-29T02:12:32.304Z,101249.00
2022-11-29T02:15:56.985Z,101226.88
2022-11-29T02:19:22.655Z,101245.06
2022-11-29T02:22:31.201Z,101252.34
2022-11-29T02:25:41.579Z,101249.56
2022-11-29T02:28:46.956Z,101254.88
2022-11-29T02:32:26.661Z,101256.03
2022-11-29T02:36:00.408Z,101261.47
2022-11-29T02:39:02.798Z,101253.09
2022-11-29T02:42:55.672Z,101260.22
2022-11-29T02:46:10.883Z,101262.09
2022-11-29T02:49:22.508Z,101260.69
2022-11-29T02:52:36.728Z,101256.22
2022-11-29T02:56:11.053Z,101263.91
2022-11-29T02:59:29.747Z,101225.84
2022-11-29T03:02:59.732Z,101270.69
2022-11-29T03:06:18.982Z,101255.06
2022-11-29T03:09:42.896Z,101274.94
2022-11-29T03:12:48.068Z,101276.03
2022-11-29T03:16:22.731Z,101275.03
2022-11-29T03:19:49.940Z,101276.91
2022-11-29T03:22:52.276Z,101276.06
2022-11-29T03:26:00.083Z,101275.81
2022-11-29T03:29:10.027Z,101276.06
2022-11-29T03:32:28.885Z,101276.69
2022-11-29T03:35:40.812Z,101249.97
2022-11-29T03:38:45.837Z,101271.09
2022-11-29T03:42:02.422Z,101278.09
2022-11-29T03:45:19.908Z,101285.44
2022-11-29T03:48:38.067Z,101267.22
2022-11-29T03:51:55.751Z,101282.47
2022-11-29T03:55:12.952Z,101277.94
2022-11-29T03:58:28.514Z,101268.88
2022-11-29T04:02:01.631Z,101281.16
2022-11-29T04:05:28.549Z,101276.41
2022-11-29T04:08:57.984Z,101278.75
2022-11-29T04:12:38.404Z,101279.97
2022-11-29T04:15:57.970Z,101276.78
2022-11-29T04:19:09.417Z,101281.78
2022-11-29T04:22:28.625Z,101258.75
2022-11-29T04:25:46.734Z,101282.59
2022-11-29T04:28:58.055Z,101288.19
2022-11-29T04:32:00.444Z,101276.72
2022-11-29T04:35:18.572Z,101284.59
2022-11-29T04:38:30.063Z,101276.47
2022-11-29T04:41:39.766Z,101278.25
2022-11-29T04:44:48.365Z,101280.50
2022-11-29T04:48:14.875Z,101277.63
2022-11-29T04:51:43.466Z,101279.91
2022-11-29T04:55:13.221Z,101285.50
2022-11-29T04:58:37.905Z,101284.66
2022-11-29T05:01:59.210Z,101285.91
2022-11-29T05:05:27.537Z,101273.72
2022-11-29T05:08:45.038Z,101288.19
2022-11-29T05:12:00.812Z,101281.88
2022-11-29T05:15:37.131Z,101296.56
2022-11-29T05:18:57.839Z,101281.47
2022-11-29T05:22:18.912Z,101289.84
2022-11-29T05:25:31.776Z,101284.38
2022-11-29T05:28:49.948Z,101304.28
2022-11-29T05:32:29.748Z,101301.38
2022-11-29T05:35:41.037Z,101303.09
2022-11-29T05:39:05.199Z,101297.28
2022-11-29T05:42:33.625Z,101301.97
2022-11-29T05:45:44.481Z,101302.91
2022-11-29T05:48:59.444Z,101292.06
2022-11-29T05:52:22.170Z,101307.28
2022-11-29T05:55:48.530Z,101313.53
2022-11-29T05:59:01.382Z,101299.88
2022-11-29T06:02:31.345Z,101319.81
2022-11-29T06:05:42.120Z,101304.44
2022-11-29T06:09:00.507Z,101320.16
2022-11-29T06:12:35.038Z,101304.13
2022-11-29T06:15:56.765Z,101321.00
2022-11-29T06:19:21.080Z,101320.97
2022-11-29T06:22:47.494Z,101311.94
2022-11-29T06:26:03.481Z,101315.66
2022-11-29T06:29:43.832Z,101327.19
2022-11-29T06:32:56.909Z,101326.75
2022-11-29T06:36:16.276Z,101330.03
2022-11-29T06:39:18.956Z,101327.50
2022-11-29T06:42:21.491Z,101336.91
2022-11-29T06:45:24.187Z,101332.81
2022-11-29T06:48:28.356Z,101328.72
2022-11-29T06:51:41.242Z,101329.13
2022-11-29T06:54:56.719Z,101337.81
2022-11-29T06:58:09.652Z,101344.81
2022-11-29T07:01:50.264Z,101330.53
2022-11-29T07:05:11.404Z,101345.56
2022-11-29T07:08:20.119Z,101343.75
2022-11-29T07:11:22.883Z,101327.19
2022-11-29T07:14:25.722Z,101310.81
2022-11-29T07:17:49.848Z,101325.72
2022-11-29T07:21:02.402Z,101336.31
2022-11-29T07:24:19.805Z,101343.94
2022-11-29T07:27:28.283Z,101343.56
2022-11-29T07:30:57.913Z,101330.25
2022-11-29T07:34:31.586Z,101342.22
2022-11-29T07:37:50.439Z,101352.97
2022-11-29T07:41:00.576Z,101340.22
2022-11-29T07:44:17.344Z,101335.91
2022-11-29T07:47:19.812Z,101350.44
2022-11-29T07:50:22.394Z,101326.81
2022-11-29T07:53:25.061Z,101338.09
2022-11-29T07:56:27.595Z,101338.59
2022-11-29T07:59:30.043Z,101343.13
2022-11-29T08:02:32.814Z,101340.72
2022-11-29T08:05:36.288Z,101341.31
2022-11-29T08:08:43.672Z,101346.13
2022-11-29T08:12:22.716Z,101346.19
2022-11-29T08:15:25.945Z,101330.25
2022-11-29T08:18:28.420Z,101336.97
2022-11-29T08:21:30.884Z,101334.53
2022-11-29T08:24:33.368Z,101349.13
2022-11-29T08:27:36.990Z,101344.63
2022-11-29T08:30:39.592Z,101338.94
2022-11-29T08:33:43.449Z,101329.53
2022-11-29T08:36:46.080Z,101337.97
2022-11-29T08:39:48.537Z,101340.66
2022-11-29T08:42:51.023Z,101347.06
2022-11-29T08:45:53.402Z,101349.75
2022-11-29T08:48:55.845Z,101341.38
2022-11-29T08:52:17.267Z,101351.44
2022-11-29T08:55:21.047Z,101347.56
2022-11-29T08:58:24.133Z,101340.75
2022-11-29T09:01:29.381Z,101327.97
2022-11-29T09:04:32.159Z,101328.03
2022-11-29T09:07:34.800Z,101347.22
2022-11-29T09:10:39.667Z,101340.13
2022-11-29T09:13:43.947Z,101337.00
2022-11-29T09:16:46.501Z,101317.84
2022-11-29T09:19:49.219Z,101317.59
2022-11-29T09:22:51.847Z,101316.28
2022-11-29T09:25:56.428Z,101320.75
2022-11-29T09:29:01.411Z,101327.06
2022-11-29T09:32:04.154Z,101313.69
2022-11-29T09:35:06.988Z,101312.09
2022-11-29T09:38:13.086Z,101307.88
2022-11-29T09:41:48.363Z,101321.03
2022-11-29T09:44:57.238Z,101319.41
2022-11-29T09:48:17.831Z,101318.38
2022-11-29T09:51:25.375Z,101311.75
2022-11-29T09:54:39.724Z,101318.88
2022-11-29T09:57:44.119Z,101315.91
2022-11-29T10:00:58.649Z,101315.44
2022-11-29T10:04:09.058Z,101319.63
2022-11-29T10:07:21.996Z,101300.63
2022-11-29T10:10:37.821Z,101318.47
2022-11-29T10:13:45.067Z,101287.78
2022-11-29T10:16:54.547Z,101289.03
2022-11-29T10:20:13.495Z,101295.84
2022-11-29T10:23:30.388Z,101307.13
2022-11-29T10:26:35.325Z,101295.31
2022-11-29T10:29:38.931Z,101276.59
2022-11-29T10:32:42.753Z,101280.47
2022-11-29T10:35:48.683Z,101290.16
2022-11-29T10:38:53.195Z,101281.22
2022-11-29T10:41:59.583Z,101261.56
2022-11-29T10:45:02.483Z,101266.47
2022-11-29T10:48:14.728Z,101272.41
2022-11-29T10:51:17.821Z,101266.41
2022-11-29T10:54:37.345Z,101280.28
2022-11-29T10:58:09.724Z,101279.22
2022-11-29T11:01:13.474Z,101250.25
2022-11-29T11:04:21.816Z,101273.13
2022-11-29T11:07:38.592Z,101272.06
2022-11-29T11:10:41.441Z,101250.00
2022-11-29T11:13:43.951Z,101252.09
2022-11-29T11:16:46.427Z,101245.22
2022-11-29T11:20:08.444Z,101254.56
2022-11-29T11:23:30.959Z,101243.22
2022-11-29T11:26:44.364Z,101257.16
2022-11-29T11:29:47.126Z,101258.44
2022-11-29T11:33:26.021Z,101250.56
2022-11-29T11:36:28.416Z,101246.31
2022-11-29T11:39:32.230Z,101258.38
2022-11-29T11:42:38.960Z,101257.59
2022-11-29T11:45:41.375Z,101245.38
2022-11-29T11:48:43.744Z,101252.56
2022-11-29T11:51:46.979Z,101265.78
2022-11-29T11:54:54.645Z,101261.84
2022-11-29T11:58:12.468Z,101262.69
2022-11-29T12:01:37.611Z,101247.97
2022-11-29T12:04:41.014Z,101252.47
2022-11-29T12:11:12.069Z,101248.97
2022-11-29T12:14:31.377Z,101247.97
2022-11-29T12:17:36.799Z,101275.44
2022-11-29T12:20:44.620Z,101274.13
2022-11-29T12:23:54.976Z,101253.06
2022-11-29T12:27:03.995Z,101257.41
2022-11-29T12:30:12.956Z,101260.53
2022-11-29T12:33:21.996Z,101276.00
2022-11-29T12:36:33.401Z,101271.66
2022-11-29T12:39:52.703Z,101263.06
2022-11-29T12:43:01.138Z,101264.78
2022-11-29T12:46:28.405Z,101268.25
2022-11-29T12:49:40.786Z,101259.16
2022-11-29T12:53:26.738Z,101258.88
2022-11-29T12:56:56.000Z,101247.28
2022-11-29T13:00:08.763Z,101260.16
2022-11-29T13:03:25.105Z,101250.09
2022-11-29T13:07:00.051Z,101251.84
2022-11-29T13:10:02.739Z,101256.25
2022-11-29T13:13:37.602Z,101246.72
2022-11-29T13:16:49.186Z,101258.03
2022-11-29T13:19:56.930Z,101257.91
2022-11-29T13:23:45.911Z,101263.59
2022-11-29T13:26:56.625Z,101258.53
2022-11-29T13:30:00.131Z,101249.16
2022-11-29T13:33:17.776Z,101257.84
2022-11-29T13:36:23.283Z,101266.03
2022-11-29T13:39:44.604Z,101266.84
2022-11-29T13:42:58.385Z,101236.22
2022-11-29T13:46:19.743Z,101254.53
2022-11-29T13:49:57.424Z,101260.41
2022-11-29T13:53:29.862Z,101264.53
2022-11-29T13:56:46.003Z,101260.91
2022-11-29T13:59:49.409Z,101256.88
2022-11-29T14:02:51.918Z,101254.47
2022-11-29T14:06:18.832Z,101269.06
2022-11-29T14:09:27.284Z,101262.53
2022-11-29T14:12:49.045Z,101256.69
2022-11-29T14:15:59.888Z,101259.63
2022-11-29T14:19:08.443Z,101262.28
2022-11-29T14:22:21.236Z,101260.78
2022-11-29T14:25:50.452Z,101261.59
2022-11-29T14:28:57.346Z,101271.31
2022-11-29T14:31:59.942Z,101278.94
2022-11-29T14:35:15.720Z,101276.06
2022-11-29T14:38:24.024Z,101289.19
2022-11-29T14:41:30.121Z,101291.59
2022-11-29T14:44:33.764Z,101288.19
2022-11-29T14:47:38.943Z,101281.88
2022-11-29T14:50:42.219Z,101278.47
2022-11-29T14:53:46.117Z,101279.78
2022-11-29T14:56:48.580Z,101287.66
2022-11-29T14:59:52.795Z,101290.53
2022-11-29T15:03:06.406Z,101294.22
2022-11-29T15:06:16.047Z,101294.50
2022-11-29T15:09:21.184Z,101275.56
2022-11-29T15:12:28.246Z,101276.88
2022-11-29T15:15:53.463Z,101301.28
2022-11-29T15:19:21.365Z,101289.94
2022-11-29T15:22:46.499Z,101295.22
2022-11-29T15:25:52.989Z,101289.41
2022-11-29T15:29:13.288Z,101295.94
2022-11-29T15:32:24.060Z,101290.13
2022-11-29T15:35:26.698Z,101273.56
2022-11-29T15:38:29.137Z,101283.22
2022-11-29T15:41:34.752Z,101293.75
2022-11-29T15:44:37.549Z,101278.19
2022-11-29T15:47:39.913Z,101296.09
2022-11-29T15:50:56.577Z,101291.81
2022-11-29T15:54:12.688Z,101293.06
2022-11-29T15:57:34.071Z,101305.28
2022-11-29T16:00:36.933Z,101302.09
2022-11-29T16:03:41.150Z,101291.56
2022-11-29T16:06:44.346Z,101302.78
2022-11-29T16:09:54.345Z,101293.28
2022-11-29T16:12:58.932Z,101286.84
2022-11-29T16:16:07.821Z,101303.09
2022-11-29T16:19:19.866Z,101266.31
2022-11-29T16:22:24.704Z,101281.25
2022-11-29T16:25:27.985Z,101288.16
2022-11-29T16:28:35.329Z,101296.41
2022-11-29T16:31:38.355Z,101293.00
2022-11-29T16:34:42.804Z,101288.31
2022-11-29T16:37:46.442Z,101293.47
2022-11-29T16:41:39.890Z,101291.41
2022-11-29T16:44:46.905Z,101312.97
2022-11-29T16:47:59.925Z,101299.66
2022-11-29T16:51:13.370Z,101317.13
2022-11-29T16:54:22.085Z,101301.00
2022-11-29T16:57:25.654Z,101299.38
2022-11-29T17:00:33.303Z,101274.84
2022-11-29T17:03:35.838Z,101308.75
2022-11-29T17:06:38.240Z,101313.69
2022-11-29T17:09:40.990Z,101318.63
2022-11-29T17:12:48.085Z,101322.75
2022-11-29T17:15:51.090Z,101289.31
2022-11-29T17:18:53.839Z,101314.03
2022-11-29T17:21:56.342Z,101300.31
2022-11-29T17:25:00.002Z,101316.03
2022-11-29T17:28:02.980Z,101319.41
2022-11-29T17:31:13.760Z,101297.09
2022-11-29T17:34:16.686Z,101321.03
2022-11-29T17:37:19.528Z,101309.19
2022-11-29T17:40:22.286Z,101306.25
2022-11-29T17:43:25.136Z,101321.75
2022-11-29T17:46:31.407Z,101341.25
2022-11-29T17:49:34.101Z,101337.38
2022-11-29T17:52:37.065Z,101336.72
2022-11-29T17:55:40.732Z,101342.97
2022-11-29T17:58:43.988Z,101345.72
2022-11-29T18:01:49.644Z,101332.41
2022-11-29T18:04:53.433Z,101342.19
2022-11-29T18:07:59.022Z,101327.16
2022-11-29T18:11:06.796Z,101340.41
2022-11-29T18:14:11.240Z,101329.50
2022-11-29T18:17:13.905Z,101349.03
2022-11-29T18:20:16.658Z,101344.44
2022-11-29T18:23:19.599Z,101334.53
2022-11-29T18:26:24.135Z,101358.81
2022-11-29T18:29:26.723Z,101349.44
2022-11-29T18:32:30.641Z,101336.50
2022-11-29T18:35:33.257Z,101338.94
2022-11-29T18:38:36.885Z,101345.97
2022-11-29T18:41:41.426Z,101345.63
2022-11-29T18:44:44.421Z,101321.16
2022-11-29T18:47:47.576Z,101345.75
2022-11-29T18:50:51.063Z,101353.34
2022-11-29T18:53:53.748Z,101353.75
2022-11-29T18:56:56.805Z,101325.13
2022-11-29T18:59:59.444Z,101346.50
2022-11-29T19:03:01.935Z,101322.59
2022-11-29T19:06:06.734Z,101355.69
2022-11-29T19:09:15.228Z,101355.22
2022-11-29T19:12:17.916Z,101349.25
2022-11-29T19:15:20.599Z,101352.59
2022-11-29T19:18:23.330Z,101362.09
2022-11-29T19:21:27.965Z,101341.50
2022-11-29T19:24:30.657Z,101348.88
2022-11-29T19:27:33.331Z,101354.81
2022-11-29T19:30:36.123Z,101350.13
2022-11-29T19:33:40.183Z,101350.28
2022-11-29T19:36:44.428Z,101360.03
2022-11-29T19:39:47.902Z,101348.50
2022-11-29T19:42:52.317Z,101360.59
2022-11-29T19:45:55.120Z,101350.69
2022-11-29T19:49:00.997Z,101340.41
2022-11-29T19:52:04.421Z,101339.78
2022-11-29T19:55:06.968Z,101326.97
2022-11-29T19:58:09.705Z,101329.66
2022-11-29T20:01:13.801Z,101325.75
2022-11-29T20:04:17.548Z,101328.09
2022-11-29T20:07:21.439Z,101323.56
2022-11-29T20:10:24.733Z,101337.84
2022-11-29T20:13:27.416Z,101320.78
2022-11-29T20:16:31.074Z,101327.81
2022-11-29T20:19:34.112Z,101334.97
2022-11-29T20:22:37.199Z,101344.75
2022-11-29T20:25:39.930Z,101323.84
2022-11-29T20:28:42.732Z,101338.25
2022-11-29T20:31:50.295Z,101321.44
2022-11-29T20:34:54.182Z,101328.38
2022-11-29T20:38:08.545Z,101316.63
2022-11-29T20:41:15.544Z,101322.66
2022-11-29T20:44:21.799Z,101321.38
2022-11-29T20:47:32.948Z,101322.44
2022-11-29T20:50:36.011Z,101335.34
2022-11-29T20:53:43.053Z,101335.25
2022-11-29T20:56:45.721Z,101331.69
2022-11-29T20:59:48.451Z,101328.31
2022-11-29T21:02:51.208Z,101327.41
2022-11-29T21:05:56.055Z,101323.78
2022-11-29T21:08:58.840Z,101332.25
2022-11-29T21:12:01.791Z,101323.38
2022-11-29T21:15:04.743Z,101325.53
2022-11-29T21:18:07.629Z,101338.22
2022-11-29T21:21:33.260Z,101338.22
2022-11-29T21:25:22.899Z,101341.75
2022-11-29T21:28:30.470Z,101321.16
2022-11-29T21:31:33.258Z,101323.09
2022-11-29T21:34:35.743Z,101324.38
2022-11-29T21:37:38.281Z,101335.00
2022-11-29T21:40:40.929Z,101313.50
2022-11-29T21:44:05.614Z,101335.13
2022-11-29T21:47:05.869Z,101329.66
2022-11-29T21:50:08.715Z,101318.38
2022-11-29T21:53:11.149Z,101315.78
2022-11-29T21:56:15.232Z,101305.13
2022-11-29T21:59:17.753Z,101323.94
2022-11-29T22:02:20.307Z,101324.31
2022-11-29T22:05:22.817Z,101339.38
2022-11-29T22:08:25.329Z,101344.72
2022-11-29T22:11:36.296Z,101343.47
2022-11-29T22:14:38.656Z,101337.28
2022-11-29T22:17:41.444Z,101341.03
2022-11-29T22:20:44.035Z,101343.97
2022-11-29T22:23:46.724Z,101347.94
2022-11-29T22:26:50.014Z,101370.00
2022-11-29T22:29:52.400Z,101342.41
2022-11-29T22:32:56.665Z,101355.28
2022-11-29T22:36:17.174Z,101347.81
2022-11-29T22:39:19.658Z,101350.66
2022-11-29T22:42:22.731Z,101329.72
2022-11-29T22:45:25.117Z,101347.72
2022-11-29T22:48:27.645Z,101343.75
2022-11-29T22:51:35.077Z,101340.91
2022-11-29T22:54:37.517Z,101350.88
2022-11-29T22:57:39.939Z,101341.81
2022-11-29T23:00:46.500Z,101356.19
2022-11-29T23:03:56.261Z,101358.22
2022-11-29T23:06:58.741Z,101337.63
2022-11-29T23:10:01.306Z,101334.66
2022-11-29T23:13:03.759Z,101321.63
2022-11-29T23:16:08.770Z,101349.72
2022-11-29T23:19:11.432Z,101346.88
2022-11-29T23:22:14.199Z,101342.88
2022-11-29T23:25:16.597Z,101347.00
2022-11-29T23:28:19.093Z,101336.16
2022-11-29T23:31:22.368Z,101326.84
2022-11-29T23:34:24.867Z,101320.28
2022-11-29T23:37:27.315Z,101308.97
2022-11-29T23:40:29.765Z,101325.84
2022-11-29T23:43:35.498Z,101331.97
2022-11-29T23:46:37.907Z,101334.03
2022-11-29T23:49:40.399Z,101309.91
2022-11-29T23:52:42.756Z,101318.94
2022-11-29T23:55:47.932Z,101303.53
2022-11-29T23:58:50.415Z,101316.38
